Rocanville, Canada
Current Conditions -  °F | °C
As of 5:00 PM on Thursday 20 Nov 2014 (Local Time) from CYQV Reporting Station
Overcast Overcast  
Wind Chill:   Ceiling: 13000
Heat Index: 18°   Visibility: 9mi
Dew Point:   Wind: 10mph
Humidity: 68%   Direction: 190°S
Pressure: 29.83"   Gusts: 21mph
Location:  50.38°N, 101.7°W
Report Text: CYQV 202300Z AUTO 19009G18KT 9SM FEW095 BKN130 OVC180 M08/M13 A2983 RMK SLP142
Loading
Personal Weather Stations






























Interactive Weather Map New forecast layout! Learn more

10-Day Weather Forecast

Advertisements
Track Severe Weather on mobile